首页
METAR-TAF:

METAR-TAF

机场 :

Ekati, 西北特區, 加拿大

纬度: 64-42N, 经度: 110-37W, 海拔: 469米

当前天气观测

该预报发布于10小时和30分钟前的23:00 UTC
风速20节,风向东转东北
温度 8°C
湿度 93%
气压 1013 hPa
能見度: 16.1公里
阴天层高于3000英尺
小雨

METAR: CYOA 172300Z 07020KT 10SM -RA OVC030 08/07 A2992 RMK SC8 LAST OB/NEXT 181100Z

时间: 03:30 (09:30 UTC)

预报

该预报发布于14小时和52分钟前的18:38 UTC
预报有效从17日的 19点(UTC)到 17日的 23点(UTC)
风速15节,风向东北
能見度: 10公里
散云层高于1500英尺
多云层高于4000英尺
短暂存在
从 17日的 19点(UTC)到 17日的 22点(UTC)
多云层高于1500英尺
多云层高于4000英尺
从 17日的 2200点(UTC)
风速17节,风向东转东北
能見度: 10公里
散云层高于1200英尺
阴天层高于3000英尺
小雨
短暂存在
从 17日的 22点(UTC)到 17日的 23点(UTC)
能見度: 8.0公里
阴天层高于1200英尺
小雨, 轻雾

TAF: CYOA 171838Z 1719/1723 04015KT P6SM SCT015 BKN040 TEMPO 1719/1722 BKN015 BKN040 FM172200 06017KT P6SM -RA SCT012 OVC030 TEMPO 1722/1723 5SM -RA BR OVC012 RMK NXT FCST WILL BE ISSUED AT 181245Z

超过4000个机场的气象观测和天气预报(METAR&TAF报告)。

可查询的气象台以黄色和红色小点在地图上表示。

将鼠标移到小点上方,可查看气象台名称。

然后点击查看天气观测和预报。

如需切换地图:点击带黑十字的绿色按钮放大地图;点击带横线的绿色按钮缩小地图;或者点击绿色箭头查看邻近地区的地图。


METAR-TAF: